.
WxDataArchive / Data Records for 2007-02-04
2007-02-03 February 2007 2007-02-05

Data Records for Sunday, 04 February 2007

Time	Temp	Chill	HIndex	Humid	Dewpt	 Wind 	HiWind	WindDir	Rain 	Barom 
-----	----	-----	------	-----	-----	------	------	-------	-----	----- 
00:00	1.3	1.3	1.3	58	-10.0	2	6	270	0.00	30.197 
00:05	1.3	1.3	1.3	59	-9.7	2	5	270	0.00	30.197 
00:10	1.1	1.1	1.1	59	-9.8	1	6	270	0.00	30.197 
00:15	1.1	1.1	1.1	59	-9.8	1	5	270	0.00	30.195 
00:20	0.9	0.9	0.9	60	-9.7	1	3	270	0.00	30.195 
00:25	0.9	0.9	0.9	60	-9.7	1	3	270	0.00	30.195 
00:30	0.7	0.7	0.7	60	-9.9	0	2	248	0.00	30.197 
00:35	0.5	0.5	0.5	61	-9.7	1	4	270	0.00	30.197 
00:40	0.5	0.5	0.5	62	-9.4	1	3	270	0.00	30.197 
00:45	0.3	0.3	0.3	62	-9.6	1	3	270	0.00	30.204 
00:50	0.3	0.3	0.3	62	-9.6	1	2	270	0.00	30.204 
00:55	0.1	0.1	0.1	62	-9.8	1	4	270	0.00	30.204 
01:00	0.1	0.1	0.1	61	-10.1	2	5	270	0.00	30.206 
01:05	0.1	0.1	0.1	61	-10.1	2	6	270	0.00	30.206 
01:10	0.1	0.1	0.1	60	-10.4	2	7	270	0.00	30.206 
01:15	0.0	0.0	0.0	60	-10.5	2	5	270	0.00	30.207 
01:20	0.0	0.0	0.0	60	-10.5	2	7	270	0.00	30.207 
01:25	-0.2	-0.2	-0.2	59	-11.1	1	3	270	0.00	30.207 
01:30	-0.4	-0.4	-0.4	59	-11.3	1	4	270	0.00	30.207 
01:35	-0.4	-0.4	-0.4	58	-11.6	1	4	270	0.00	30.207 
01:40	-0.4	-0.4	-0.4	58	-11.6	1	3	270	0.00	30.207 
01:45	-0.6	-0.6	-0.6	58	-11.8	1	6	270	0.00	30.208 
01:50	-0.6	-0.6	-0.6	57	-12.1	2	5	270	0.00	30.208 
01:55	-0.6	-0.6	-0.6	57	-12.1	2	5	270	0.00	30.208 
02:00	-0.8	-0.8	-0.8	57	-12.3	1	4	270	0.00	30.198 
02:05	-0.8	-0.8	-0.8	57	-12.3	1	5	270	0.00	30.198 
02:10	-1.0	-1.0	-1.0	58	-12.2	0	2	248	0.00	30.198 
02:15	-1.2	-1.2	-1.2	58	-12.4	0	1	270	0.00	30.195 
02:20	-1.2	-1.2	-1.2	58	-12.4	0	1	248	0.00	30.195 
02:25	-1.4	-1.4	-1.4	59	-12.2	0	2	248	0.00	30.195 
02:30	-1.6	-1.6	-1.6	59	-12.4	1	4	248	0.00	30.197 
02:35	-1.6	-1.6	-1.6	59	-12.4	1	3	270	0.00	30.197 
02:40	-1.6	-1.6	-1.6	59	-12.4	1	3	248	0.00	30.197 
02:45	-1.6	-1.6	-1.6	59	-12.4	1	7	270	0.00	30.200 
02:50	-1.6	-1.6	-1.6	59	-12.4	1	5	270	0.00	30.200 
02:55	-1.6	-1.6	-1.6	58	-12.7	1	5	270	0.00	30.200 
03:00	-1.8	-1.8	-1.8	58	-12.9	2	9	270	0.00	30.203 
03:05	-1.8	-1.8	-1.8	57	-13.3	2	11	270	0.00	30.203 
03:10	-1.8	-1.8	-1.8	57	-13.3	2	6	270	0.00	30.203 
03:15	-1.8	-1.8	-1.8	57	-13.3	1	5	270	0.00	30.201 
03:20	-2.0	-2.0	-2.0	57	-13.5	1	5	270	0.00	30.201 
03:25	-2.0	-2.0	-2.0	57	-13.5	3	10	270	0.00	30.201 
03:30	-2.0	-2.0	-2.0	57	-13.5	2	6	270	0.00	30.198 
03:35	-2.2	-2.2	-2.2	57	-13.6	2	6	270	0.00	30.198 
03:40	-2.2	-2.2	-2.2	57	-13.6	1	4	248	0.00	30.198 
03:45	-2.4	-2.4	-2.4	57	-13.8	2	5	270	0.00	30.195 
03:50	-2.6	-2.6	-2.6	57	-14.0	1	4	270	0.00	30.195 
03:55	-2.6	-2.6	-2.6	57	-14.0	2	4	270	0.00	30.195 
04:00	-2.8	-2.8	-2.8	57	-14.2	1	5	270	0.00	30.191 
04:05	-2.8	-2.8	-2.8	57	-14.2	1	5	270	0.00	30.191 
04:10	-3.1	-3.1	-3.1	56	-14.8	1	4	270	0.00	30.191 
04:15	-3.1	-3.1	-3.1	57	-14.5	1	5	270	0.00	30.190 
04:20	-3.3	-3.3	-3.3	57	-14.7	1	5	270	0.00	30.190 
04:25	-3.3	-3.3	-3.3	57	-14.7	1	3	270	0.00	30.190 
04:30	-3.3	-3.3	-3.3	57	-14.7	1	5	270	0.00	30.193 
04:35	-3.5	-3.5	-3.5	57	-14.9	1	2	248	0.00	30.193 
04:40	-3.5	-3.5	-3.5	57	-14.9	1	6	270	0.00	30.193 
04:45	-3.5	-3.5	-3.5	57	-14.9	1	5	270	0.00	30.194 
04:50	-3.7	-3.7	-3.7	57	-15.1	1	2	270	0.00	30.194 
04:55	-3.7	-3.7	-3.7	57	-15.1	2	10	248	0.00	30.194 
05:00	-3.7	-3.7	-3.7	57	-15.1	1	5	248	0.00	30.198 
05:05	-3.7	-3.7	-3.7	58	-14.7	1	9	248	0.00	30.198 
05:10	-3.9	-3.9	-3.9	58	-14.9	2	9	270	0.00	30.198 
05:15	-3.9	-3.9	-3.9	58	-14.9	1	3	248	0.00	30.203 
05:20	-3.9	-3.9	-3.9	58	-14.9	1	4	270	0.00	30.203 
05:25	-4.1	-4.1	-4.1	59	-14.8	1	5	248	0.00	30.203 
05:30	-4.1	-4.1	-4.1	59	-14.8	1	3	248	0.00	30.201 
05:35	-4.3	-4.3	-4.3	59	-14.9	2	6	270	0.00	30.201 
05:40	-4.3	-4.3	-4.3	59	-14.9	2	7	270	0.00	30.201 
05:45	-4.3	-4.3	-4.3	59	-14.9	1	4	270	0.00	30.202 
05:50	-4.3	-4.3	-4.3	60	-14.6	1	4	270	0.00	30.202 
05:55	-4.3	-4.3	-4.3	60	-14.6	2	10	270	0.00	30.202 
06:00	-4.6	-4.6	-4.6	60	-14.9	2	6	270	0.00	30.201 
06:05	-4.6	-4.6	-4.6	60	-14.9	2	6	270	0.00	30.201 
06:10	-4.6	-4.6	-4.6	60	-14.9	1	5	248	0.00	30.201 
06:15	-4.6	-4.6	-4.6	61	-14.6	1	6	248	0.00	30.203 
06:20	-4.8	-4.8	-4.8	61	-14.8	2	5	270	0.00	30.203 
06:25	-4.8	-4.8	-4.8	61	-14.8	1	12	248	0.00	30.203 
06:30	-4.8	-4.8	-4.8	61	-14.8	1	6	270	0.00	30.202 
06:35	-4.8	-4.8	-4.8	61	-14.8	2	10	270	0.00	30.202 
06:40	-5.0	-5.0	-5.0	61	-15.0	2	6	270	0.00	30.202 
06:45	-5.0	-5.0	-5.0	61	-15.0	1	6	248	0.00	30.199 
06:50	-5.0	-5.0	-5.0	60	-15.3	1	4	270	0.00	30.199 
06:55	-5.2	-5.2	-5.2	60	-15.5	2	6	248	0.00	30.199 
07:00	-5.2	-5.2	-5.2	60	-15.5	2	7	270	0.00	30.198 
07:05	-5.2	-5.2	-5.2	60	-15.5	2	10	248	0.00	30.198 
07:10	-5.2	-5.2	-5.2	61	-15.1	2	5	248	0.00	30.198 
07:15	-5.4	-5.4	-5.4	61	-15.3	2	5	270	0.00	30.197 
07:20	-5.4	-5.4	-5.4	60	-15.7	2	5	248	0.00	30.197 
07:25	-5.4	-5.4	-5.4	60	-15.7	2	7	248	0.00	30.197 
07:30	-5.4	-5.4	-5.4	60	-15.7	3	7	270	0.00	30.199 
07:35	-5.4	-5.4	-5.4	60	-15.7	3	12	248	0.00	30.199 
07:40	-5.4	-5.4	-5.4	60	-15.7	2	7	270	0.00	30.199 
07:45	-5.4	-5.4	-5.4	60	-15.7	2	6	270	0.00	30.209 
07:50	-5.4	-5.4	-5.4	60	-15.7	2	10	248	0.00	30.209 
07:55	-5.4	-5.4	-5.4	60	-15.7	3	9	270	0.00	30.209 
08:00	-5.4	-5.4	-5.4	60	-15.7	2	10	270	0.00	30.215 
08:05	-5.4	-5.4	-5.4	60	-15.7	1	5	270	0.00	30.215 
08:10	-5.4	-5.4	-5.4	60	-15.7	2	7	270	0.00	30.215 
08:15	-5.4	-5.4	-5.4	59	-16.0	2	5	270	0.00	30.210 
08:20	-5.2	-5.2	-5.2	58	-16.1	2	7	270	0.00	30.210 
08:25	-5.0	-5.0	-5.0	58	-15.9	1	6	270	0.00	30.210 
08:30	-4.8	-4.8	-4.8	58	-15.8	2	5	270	0.00	30.213 
08:35	-4.3	-4.3	-4.3	57	-15.6	2	6	248	0.00	30.213 
08:40	-4.1	-4.1	-4.1	56	-15.8	3	10	248	0.00	30.213 
08:45	-3.9	-3.9	-3.9	56	-15.6	2	11	270	0.00	30.212 
08:50	-3.7	-3.7	-3.7	56	-15.4	3	11	270	0.00	30.212 
08:55	-3.7	-13.2	-3.7	55	-15.8	4	13	270	0.00	30.212 
09:00	-3.3	-3.3	-3.3	55	-15.4	3	14	270	0.00	30.213 
09:05	-3.1	-3.1	-3.1	55	-15.2	3	11	270	0.00	30.213 
09:10	-3.1	-12.5	-3.1	54	-15.6	4	12	270	0.00	30.213 
09:15	-3.3	-3.3	-3.3	53	-16.1	3	10	270	0.00	30.218 
09:20	-2.8	-2.8	-2.8	55	-14.9	2	7	270	0.00	30.218 
09:25	-2.6	-2.6	-2.6	54	-15.1	2	4	270	0.00	30.218 
09:30	-2.8	-12.1	-2.8	53	-15.6	4	11	270	0.00	30.220 
09:35	-3.1	-3.1	-3.1	54	-15.6	3	11	270	0.00	30.220 
09:40	-2.8	-2.8	-2.8	54	-15.3	3	7	270	0.00	30.220 
09:45	-2.0	-2.0	-2.0	54	-14.5	3	13	270	0.00	30.224 
09:50	-1.6	-12.4	-1.6	53	-14.5	5	13	270	0.00	30.224 
09:55	-1.8	-12.6	-1.8	54	-14.3	5	12	270	0.00	30.224 
10:00	-1.8	-11.0	-1.8	58	-12.9	4	14	270	0.00	30.231 
10:05	-1.8	-11.0	-1.8	55	-14.0	4	14	270	0.00	30.231 
10:10	-1.6	-1.6	-1.6	56	-13.4	3	6	270	0.00	30.231 
10:15	-1.4	-1.4	-1.4	55	-13.6	3	10	270	0.00	30.234 
10:20	-1.2	-1.2	-1.2	56	-13.1	3	16	270	0.00	30.234 
10:25	-1.2	-10.3	-1.2	56	-13.1	4	14	270	0.00	30.234 
10:30	-1.2	-10.3	-1.2	55	-13.4	4	12	270	0.00	30.233 
10:35	-1.0	-10.0	-1.0	57	-12.5	4	14	270	0.00	30.233 
10:40	-0.6	-0.6	-0.6	56	-12.5	2	12	270	0.00	30.233 
10:45	-0.6	-0.6	-0.6	56	-12.5	3	10	270	0.00	30.237 
10:50	-0.4	-0.4	-0.4	57	-11.9	3	7	270	0.00	30.237 
10:55	-0.2	-9.1	-0.2	55	-12.5	4	12	270	0.00	30.237 
11:00	-0.2	-9.1	-0.2	55	-12.5	4	10	270	0.00	30.235 
11:05	0.1	0.1	0.1	54	-12.6	3	10	270	0.00	30.235 
11:10	0.5	-8.3	0.5	52	-12.9	4	12	270	0.00	30.235 
11:15	0.3	-11.5	0.3	51	-13.5	6	16	270	0.00	30.243 
11:20	0.9	0.9	0.9	55	-11.4	3	14	270	0.00	30.243 
11:25	0.7	-9.7	0.7	51	-13.1	5	19	270	0.00	30.243 
11:30	1.1	1.1	1.1	53	-12.0	3	11	270	0.00	30.234 
11:35	1.5	1.5	1.5	52	-12.0	3	7	270	0.00	30.234 
11:40	1.8	1.8	1.8	53	-11.3	3	10	270	0.00	30.234 
11:45	2.0	2.0	2.0	51	-11.9	3	7	270	0.00	30.235 
11:50	2.2	-6.3	2.2	50	-12.1	4	14	270	0.00	30.235 
11:55	1.7	-11.0	1.7	50	-12.6	7	14	270	0.00	30.235 
12:00	1.3	-9.0	1.3	50	-13.0	5	13	270	0.00	30.235 
12:05	1.7	-8.5	1.7	50	-12.6	5	15	270	0.00	30.235 
12:10	1.8	-6.8	1.8	51	-12.1	4	15	270	0.00	30.235 
12:15	2.4	-6.1	2.4	52	-11.2	4	10	270	0.00	30.241 
12:20	2.4	-6.1	2.4	50	-11.9	4	13	270	0.00	30.241 
12:25	2.6	-5.9	2.6	49	-12.2	4	13	270	0.00	30.241 
12:30	2.6	-5.9	2.6	51	-11.4	4	13	270	0.00	30.237 
12:35	2.6	-7.5	2.6	50	-11.8	5	13	270	0.00	30.237 
12:40	2.6	-5.9	2.6	53	-10.6	4	18	270	0.00	30.237 
12:45	3.0	3.0	3.0	53	-10.2	3	11	270	0.00	30.234 
12:50	3.0	-5.4	3.0	49	-11.8	4	12	270	0.00	30.234 
12:55	3.4	3.4	3.4	52	-10.2	3	6	270	0.00	30.234 
13:00	3.4	-5.0	3.4	51	-10.6	4	7	270	0.00	30.234 
13:05	3.5	-4.8	3.5	51	-10.5	4	11	270	0.00	30.234 
13:10	3.2	-6.8	3.2	53	-10.0	5	13	270	0.00	30.234 
13:15	3.2	3.2	3.2	57	-8.6	3	7	270	0.00	30.231 
13:20	3.9	3.9	3.9	55	-8.6	2	7	270	0.00	30.231 
13:25	4.1	-4.2	4.1	51	-10.0	4	11	270	0.00	30.231 
13:30	3.7	-4.6	3.7	53	-9.6	4	13	270	0.00	30.221 
13:35	3.5	3.5	3.5	55	-9.0	3	11	270	0.00	30.221 
13:40	4.1	4.1	4.1	53	-9.2	2	7	270	0.00	30.221 
13:45	4.5	4.5	4.5	49	-10.4	3	7	270	0.00	30.220 
13:50	4.1	-4.2	4.1	46	-12.0	4	10	270	0.00	30.220 
13:55	3.9	3.9	3.9	50	-10.5	3	10	270	0.00	30.220 
14:00	3.9	-4.4	3.9	50	-10.5	4	12	270	0.00	30.224 
14:05	4.3	-6.8	4.3	50	-10.2	6	15	270	0.00	30.224 
14:10	4.1	-4.2	4.1	50	-10.4	4	11	270	0.00	30.224 
14:15	3.9	3.9	3.9	53	-9.4	3	10	270	0.00	30.226 
14:20	3.7	3.7	3.7	55	-8.8	2	6	270	0.00	30.226 
14:25	3.9	3.9	3.9	52	-9.8	3	12	270	0.00	30.226 
14:30	4.1	4.1	4.1	53	-9.2	3	11	270	0.00	30.221 
14:35	4.5	4.5	4.5	52	-9.2	3	6	270	0.00	30.221 
14:40	4.3	-3.9	4.3	55	-8.2	4	15	270	0.00	30.221 
14:45	5.0	5.0	5.0	54	-8.0	3	12	270	0.00	30.218 
14:50	5.6	-2.4	5.6	50	-9.0	4	10	270	0.00	30.218 
14:55	5.2	-4.4	5.2	50	-9.3	5	14	270	0.00	30.218 
15:00	5.6	-2.4	5.6	49	-9.4	4	14	270	0.00	30.224 
15:05	4.8	4.8	4.8	54	-8.2	3	9	270	0.00	30.224 
15:10	4.3	4.3	4.3	56	-7.9	3	7	270	0.00	30.224 
15:15	4.3	4.3	4.3	52	-9.4	3	11	270	0.00	30.234 
15:20	4.3	4.3	4.3	52	-9.4	3	6	270	0.00	30.234 
15:25	4.3	-3.9	4.3	55	-8.2	4	13	270	0.00	30.234 
15:30	3.9	3.9	3.9	57	-7.9	3	13	270	0.00	30.234 
15:35	3.9	3.9	3.9	56	-8.3	3	9	270	0.00	30.234 
15:40	3.9	3.9	3.9	56	-8.3	3	13	270	0.00	30.234 
15:45	3.9	3.9	3.9	57	-7.9	2	7	270	0.00	30.234 
15:50	3.9	-4.4	3.9	53	-9.4	4	15	270	0.00	30.234 
15:55	4.1	-4.2	4.1	56	-8.1	4	10	270	0.00	30.234 
16:00	3.9	3.9	3.9	58	-7.5	3	10	270	0.00	30.242 
16:05	3.9	3.9	3.9	60	-6.8	3	9	270	0.00	30.242 
16:10	4.1	4.1	4.1	62	-6.0	2	9	270	0.00	30.242 
16:15	3.9	3.9	3.9	60	-6.8	3	9	270	0.00	30.247 
16:20	3.7	3.7	3.7	65	-5.4	2	7	270	0.00	30.247 
16:25	3.9	3.9	3.9	66	-4.9	2	5	292	0.00	30.247 
16:30	3.9	3.9	3.9	65	-5.2	3	7	292	0.00	30.252 
16:35	3.7	3.7	3.7	63	-6.0	3	7	270	0.00	30.252 
16:40	3.7	3.7	3.7	62	-6.4	2	6	270	0.00	30.252 
16:45	4.1	4.1	4.1	59	-7.0	3	9	270	0.00	30.260 
16:50	4.1	4.1	4.1	59	-7.0	3	7	270	0.00	30.260 
16:55	3.9	3.9	3.9	59	-7.2	3	9	270	0.00	30.260 
17:00	3.7	3.7	3.7	63	-6.0	2	9	270	0.00	30.268 
17:05	3.5	3.5	3.5	66	-5.3	2	6	270	0.00	30.268 
17:10	3.5	3.5	3.5	65	-5.6	2	9	270	0.00	30.268 
17:15	3.4	-5.0	3.4	65	-5.7	4	12	270	0.00	30.277 
17:20	3.4	3.4	3.4	68	-4.7	2	5	270	0.00	30.277 
17:25	3.4	3.4	3.4	67	-5.1	1	4	270	0.00	30.277 
17:30	3.4	3.4	3.4	63	-6.3	2	4	270	0.00	30.283 
17:35	3.4	3.4	3.4	65	-5.7	2	5	270	0.00	30.283 
17:40	3.2	3.2	3.2	67	-5.2	3	7	270	0.00	30.283 
17:45	3.0	3.0	3.0	69	-4.8	1	5	270	0.00	30.290 
17:50	2.8	2.8	2.8	70	-4.7	1	5	270	0.00	30.290 
17:55	2.8	2.8	2.8	69	-5.0	1	4	270	0.00	30.290 
18:00	2.8	2.8	2.8	69	-5.0	1	4	270	0.00	30.300 
18:05	3.0	3.0	3.0	70	-4.5	1	5	270	0.00	30.300 
18:10	3.0	3.0	3.0	71	-4.2	1	3	270	0.00	30.300 
18:15	3.0	3.0	3.0	71	-4.2	1	4	270	0.00	30.303 
18:20	2.8	2.8	2.8	71	-4.4	2	7	270	0.00	30.303 
18:25	2.8	2.8	2.8	71	-4.4	1	3	270	0.00	30.303 
18:30	2.8	2.8	2.8	71	-4.4	1	6	270	0.00	30.313 
18:35	2.8	2.8	2.8	70	-4.7	2	6	270	0.00	30.313 
18:40	2.8	2.8	2.8	70	-4.7	1	5	270	0.00	30.313 
18:45	2.8	2.8	2.8	69	-5.0	1	4	270	0.00	30.317 
18:50	2.8	2.8	2.8	68	-5.3	1	5	270	0.00	30.317 
18:55	2.8	2.8	2.8	67	-5.6	1	3	292	0.00	30.317 
19:00	2.8	2.8	2.8	65	-6.3	1	3	270	0.00	30.322 
19:05	2.6	2.6	2.6	63	-7.1	1	4	270	0.00	30.322 
19:10	2.6	2.6	2.6	62	-7.4	1	3	270	0.00	30.322 
19:15	2.4	2.4	2.4	61	-7.9	1	3	270	0.00	30.329 
19:20	2.2	2.2	2.2	61	-8.1	1	3	270	0.00	30.329 
19:25	2.2	2.2	2.2	60	-8.5	0	2	270	0.00	30.329 
19:30	2.0	2.0	2.0	60	-8.6	1	3	270	0.00	30.336 
19:35	2.0	2.0	2.0	59	-9.0	1	4	270	0.00	30.336 
19:40	2.0	2.0	2.0	59	-9.0	1	3	270	0.00	30.336 
19:45	2.0	2.0	2.0	59	-9.0	2	7	270	0.00	30.342 
19:50	2.0	2.0	2.0	58	-9.3	2	7	270	0.00	30.342 
19:55	1.8	1.8	1.8	58	-9.5	1	4	270	0.00	30.342 
20:00	1.8	1.8	1.8	58	-9.5	1	5	270	0.00	30.345 
20:05	1.7	1.7	1.7	58	-9.6	1	4	270	0.00	30.345 
20:10	1.7	1.7	1.7	58	-9.6	1	4	270	0.00	30.345 
20:15	1.7	1.7	1.7	58	-9.6	2	4	270	0.00	30.342 
20:20	1.5	1.5	1.5	58	-9.8	1	5	270	0.00	30.342 
20:25	1.5	1.5	1.5	57	-10.2	2	10	270	0.00	30.342 
20:30	1.5	1.5	1.5	57	-10.2	1	4	270	0.00	30.338 
20:35	1.3	1.3	1.3	56	-10.7	1	6	270	0.00	30.338 
20:40	1.3	1.3	1.3	55	-11.1	1	5	270	0.00	30.338 
20:45	1.3	1.3	1.3	54	-11.4	2	6	270	0.00	30.341 
20:50	1.3	1.3	1.3	54	-11.4	2	7	270	0.00	30.341 
20:55	1.3	1.3	1.3	54	-11.4	1	4	270	0.00	30.341 
21:00	1.1	1.1	1.1	53	-12.0	2	5	270	0.00	30.344 
21:05	1.1	1.1	1.1	53	-12.0	1	3	270	0.00	30.344 
21:10	1.1	1.1	1.1	53	-12.0	1	2	270	0.00	30.344 
21:15	0.9	0.9	0.9	53	-12.2	1	3	270	0.00	30.344 
21:20	0.9	0.9	0.9	52	-12.6	1	4	270	0.00	30.344 
21:25	0.9	0.9	0.9	52	-12.6	1	3	270	0.00	30.344 
21:30	0.9	0.9	0.9	52	-12.6	1	4	270	0.00	30.345 
21:35	0.7	0.7	0.7	53	-12.4	0	2	270	0.00	30.345 
21:40	0.5	0.5	0.5	52	-12.9	1	4	270	0.00	30.345 
21:45	0.5	0.5	0.5	52	-12.9	1	3	270	0.00	30.349 
21:50	0.5	0.5	0.5	52	-12.9	1	6	270	0.00	30.349 
21:55	0.5	0.5	0.5	52	-12.9	1	4	270	0.00	30.349 
22:00	0.3	0.3	0.3	52	-13.1	1	3	248	0.00	30.350 
22:05	0.3	0.3	0.3	52	-13.1	1	5	270	0.00	30.350 
22:10	0.3	0.3	0.3	52	-13.1	1	3	270	0.00	30.350 
22:15	0.3	0.3	0.3	52	-13.1	1	4	270	0.00	30.357 
22:20	0.3	0.3	0.3	52	-13.1	2	10	270	0.00	30.357 
22:25	0.3	0.3	0.3	52	-13.1	1	4	248	0.00	30.357 
22:30	0.1	0.1	0.1	52	-13.3	2	12	270	0.00	30.360 
22:35	0.1	0.1	0.1	53	-12.9	1	3	270	0.00	30.360 
22:40	0.0	0.0	0.0	53	-13.0	1	3	270	0.00	30.360 
22:45	0.0	0.0	0.0	53	-13.0	1	4	248	0.00	30.363 
22:50	-0.2	-0.2	-0.2	53	-13.2	1	4	270	0.00	30.363 
22:55	-0.2	-0.2	-0.2	54	-12.8	1	4	270	0.00	30.363 
23:00	-0.2	-0.2	-0.2	54	-12.8	1	5	270	0.00	30.361 
23:05	-0.2	-0.2	-0.2	54	-12.8	1	6	270	0.00	30.361 
23:10	-0.2	-0.2	-0.2	54	-12.8	1	3	270	0.00	30.361 
23:15	-0.4	-0.4	-0.4	54	-13.0	1	6	270	0.00	30.362 
23:20	-0.4	-0.4	-0.4	54	-13.0	1	3	248	0.00	30.362 
23:25	-0.4	-0.4	-0.4	54	-13.0	1	5	270	0.00	30.362 
23:30	-0.6	-0.6	-0.6	55	-12.8	1	10	270	0.00	30.364 
23:35	-0.8	-0.8	-0.8	55	-13.0	1	5	270	0.00	30.364 
23:40	-0.8	-0.8	-0.8	55	-13.0	1	4	270	0.00	30.364 
23:45	-0.8	-0.8	-0.8	55	-13.0	1	4	270	0.00	30.365 
23:50	-1.0	-1.0	-1.0	56	-12.9	1	3	270	0.00	30.365 
23:55	-1.0	-1.0	-1.0	56	-12.9	1	5	270	0.00	30.365 

CoCoRaHS
IN-AL-39
A2 Web Hosting
Creative Commons License
GoDaddy
Look for:

loaded 2017-12-13 02:49:16 • last modified 2010-11-18 10:43:29
Privacy PolicyDisclaimer
• wx.awcolley.com is powered by PmWiki v.2002016 •
• all content (unless otherwise noted) © 2017 A W Colley